createdAt,value
2022-11-28T00:00:04.982Z,76.16
2022-11-28T00:01:05.046Z,73.96
2022-11-28T00:01:52.048Z,73.70
2022-11-28T00:02:33.097Z,74.39
2022-11-28T00:03:07.161Z,76.01
2022-11-28T00:03:54.979Z,74.13
2022-11-28T00:04:29.011Z,73.11
2022-11-28T00:05:19.963Z,74.66
2022-11-28T00:05:54.019Z,73.89
2022-11-28T00:06:51.997Z,71.57
2022-11-28T00:07:26.038Z,74.95
2022-11-28T00:08:06.018Z,71.95
2022-11-28T00:08:46.154Z,71.89
2022-11-28T00:09:26.986Z,73.71
2022-11-28T00:10:07.832Z,74.59
2022-11-28T00:10:48.965Z,70.74
2022-11-28T00:11:29.040Z,72.50
2022-11-28T00:12:08.956Z,72.55
2022-11-28T00:12:48.979Z,70.64
2022-11-28T00:13:28.983Z,68.30
2022-11-28T00:14:09.032Z,70.18
2022-11-28T00:14:49.963Z,71.86
2022-11-28T00:15:30.102Z,70.18
2022-11-28T00:16:13.982Z,68.57
2022-11-28T00:16:54.120Z,69.16
2022-11-28T00:17:34.221Z,68.41
2022-11-28T00:18:15.054Z,69.09
2022-11-28T00:18:56.983Z,68.39
2022-11-28T00:19:37.991Z,69.22
2022-11-28T00:20:18.971Z,70.16
2022-11-28T00:20:59.006Z,68.60
2022-11-28T00:21:39.949Z,70.32
2022-11-28T00:22:19.986Z,70.74
2022-11-28T00:22:59.946Z,69.83
2022-11-28T00:23:40.975Z,68.64
2022-11-28T00:24:21.965Z,67.75
2022-11-28T00:25:03.030Z,70.53
2022-11-28T00:25:42.947Z,71.38
2022-11-28T00:26:37.023Z,69.94
2022-11-28T00:27:16.973Z,70.57
2022-11-28T00:27:56.970Z,69.85
2022-11-28T00:28:37.988Z,69.06
2022-11-28T00:29:18.982Z,69.28
2022-11-28T00:29:58.961Z,67.60
2022-11-28T00:30:44.028Z,68.26
2022-11-28T00:31:31.075Z,69.29
2022-11-28T00:32:11.098Z,68.56
2022-11-28T00:32:50.959Z,66.05
2022-11-28T00:33:32.020Z,66.53
2022-11-28T00:34:11.997Z,66.70
2022-11-28T00:34:52.121Z,65.26
2022-11-28T00:35:32.047Z,65.53
2022-11-28T00:36:13.357Z,65.44
2022-11-28T00:36:53.925Z,65.24
2022-11-28T00:37:33.983Z,65.74
2022-11-28T00:38:14.909Z,67.45
2022-11-28T00:38:55.954Z,69.95
2022-11-28T00:39:35.939Z,69.21
2022-11-28T00:40:17.028Z,65.31
2022-11-28T00:41:08.991Z,67.95
2022-11-28T00:41:49.990Z,67.86
2022-11-28T00:42:30.965Z,66.22
2022-11-28T00:43:11.749Z,65.43
2022-11-28T00:43:53.935Z,66.36
2022-11-28T00:44:33.995Z,67.03
2022-11-28T00:45:14.931Z,66.46
2022-11-28T00:45:55.033Z,66.64
2022-11-28T00:46:36.962Z,65.41
2022-11-28T00:47:18.031Z,65.22
2022-11-28T00:47:57.959Z,63.16
2022-11-28T00:48:39.987Z,64.22
2022-11-28T00:49:19.935Z,62.36
2022-11-28T00:49:59.967Z,65.19
2022-11-28T00:50:39.903Z,63.94
2022-11-28T00:51:23.126Z,62.33
2022-11-28T00:52:03.923Z,62.54
2022-11-28T00:52:43.969Z,63.22
2022-11-28T00:53:23.928Z,62.88
2022-11-28T00:54:07.004Z,64.56
2022-11-28T00:54:46.924Z,64.35
2022-11-28T00:55:27.217Z,61.70
2022-11-28T00:56:06.919Z,62.22
2022-11-28T00:56:47.947Z,63.81
2022-11-28T00:57:27.924Z,61.71
2022-11-28T00:58:07.935Z,61.09
2022-11-28T00:58:48.911Z,59.80
2022-11-28T00:59:29.021Z,59.36
2022-11-28T01:00:12.015Z,60.97
2022-11-28T01:00:52.081Z,63.88
2022-11-28T01:01:38.999Z,63.08
2022-11-28T01:02:19.034Z,60.58
2022-11-28T01:03:00.956Z,61.49
2022-11-28T01:03:40.927Z,61.97
2022-11-28T01:04:23.910Z,60.28
2022-11-28T01:05:03.926Z,58.51
2022-11-28T01:05:49.912Z,57.17
2022-11-28T01:06:31.979Z,59.90
2022-11-28T01:07:11.961Z,56.38
2022-11-28T01:07:51.956Z,54.39
2022-11-28T01:08:31.933Z,56.86
2022-11-28T01:09:26.040Z,54.54
2022-11-28T01:10:06.920Z,52.97
2022-11-28T01:10:49.053Z,53.13
2022-11-28T01:11:29.871Z,53.14
2022-11-28T01:12:09.965Z,54.59
2022-11-28T01:12:56.916Z,55.09
2022-11-28T01:13:31.101Z,55.63
2022-11-28T01:14:11.921Z,55.61
2022-11-28T01:14:51.926Z,55.20
2022-11-28T01:15:31.957Z,54.95
2022-11-28T01:16:13.192Z,57.20
2022-11-28T01:16:52.946Z,56.60
2022-11-28T01:17:32.991Z,55.34
2022-11-28T01:18:12.892Z,53.90
2022-11-28T01:18:52.970Z,56.69
2022-11-28T01:19:33.910Z,56.31
2022-11-28T01:20:15.932Z,56.15
2022-11-28T01:20:55.901Z,56.38
2022-11-28T01:21:35.921Z,56.63
2022-11-28T01:22:15.884Z,56.67
2022-11-28T01:22:55.939Z,53.44
2022-11-28T01:23:35.908Z,53.24
2022-11-28T01:24:30.886Z,55.16
2022-11-28T01:25:11.937Z,54.60
2022-11-28T01:25:51.952Z,56.41
2022-11-28T01:26:34.899Z,53.41
2022-11-28T01:27:14.886Z,54.22
2022-11-28T01:27:54.886Z,53.92
2022-11-28T01:28:36.076Z,54.81
2022-11-28T01:29:16.852Z,52.34
2022-11-28T01:29:56.920Z,51.88
2022-11-28T01:30:36.907Z,56.37
2022-11-28T01:31:20.998Z,54.79
2022-11-28T01:32:00.910Z,55.31
2022-11-28T01:32:40.963Z,56.00
2022-11-28T01:33:20.897Z,53.74
2022-11-28T01:34:02.906Z,52.70
2022-11-28T01:34:43.067Z,51.85
2022-11-28T01:35:23.879Z,54.53
2022-11-28T01:36:05.979Z,58.38
2022-11-28T01:36:45.915Z,53.74
2022-11-28T01:37:25.881Z,52.88
2022-11-28T01:38:06.293Z,52.36
2022-11-28T01:38:46.894Z,52.14
2022-11-28T01:39:26.938Z,52.89
2022-11-28T01:40:06.862Z,54.30
2022-11-28T01:40:52.946Z,54.01
2022-11-28T01:41:34.883Z,53.09
2022-11-28T01:42:22.898Z,54.28
2022-11-28T01:43:03.853Z,55.92
2022-11-28T01:43:44.928Z,52.42
2022-11-28T01:44:24.866Z,52.86
2022-11-28T01:45:40.160Z,52.66
2022-11-28T01:46:19.886Z,52.84
2022-11-28T01:46:59.944Z,53.39
2022-11-28T01:47:35.898Z,53.59
2022-11-28T01:48:39.874Z,51.66
2022-11-28T01:49:34.043Z,51.55
2022-11-28T01:50:20.850Z,53.36
2022-11-28T01:50:55.939Z,52.04
2022-11-28T01:51:42.894Z,51.80
2022-11-28T01:52:27.882Z,51.51
2022-11-28T01:53:22.856Z,49.79
2022-11-28T01:54:17.839Z,50.51
2022-11-28T01:55:13.860Z,52.63
2022-11-28T01:56:17.832Z,52.39
2022-11-28T01:57:19.841Z,50.91
2022-11-28T01:58:00.884Z,50.51
2022-11-28T01:58:42.929Z,52.22
2022-11-28T01:59:23.847Z,51.91
2022-11-28T02:00:25.899Z,51.86
2022-11-28T02:01:06.877Z,50.90
2022-11-28T02:01:46.993Z,51.30
2022-11-28T02:02:44.831Z,50.66
2022-11-28T02:03:32.843Z,50.30
2022-11-28T02:04:06.976Z,52.59
2022-11-28T02:04:54.835Z,53.03
2022-11-28T02:05:28.900Z,54.53
2022-11-28T02:06:17.849Z,54.96
2022-11-28T02:06:51.885Z,56.38
2022-11-28T02:07:39.901Z,52.70
2022-11-28T02:08:16.058Z,52.67
2022-11-28T02:08:59.839Z,52.74
2022-11-28T02:09:39.855Z,54.04
2022-11-28T02:10:40.819Z,52.81
2022-11-28T02:11:56.858Z,54.63
2022-11-28T02:13:16.845Z,54.85
2022-11-28T02:14:25.869Z,55.05
2022-11-28T02:15:46.859Z,52.47
2022-11-28T02:17:09.846Z,49.90
2022-11-28T02:18:24.852Z,51.53
2022-11-28T02:19:49.860Z,53.24
2022-11-28T02:21:17.821Z,50.45
2022-11-28T02:22:37.824Z,51.81
2022-11-28T02:23:48.828Z,53.21
2022-11-28T02:25:13.867Z,53.09
2022-11-28T02:27:00.838Z,52.88
2022-11-28T02:28:33.808Z,53.00
2022-11-28T02:30:04.814Z,52.41
2022-11-28T02:31:16.913Z,53.95
2022-11-28T02:32:20.934Z,52.60
2022-11-28T02:33:19.802Z,53.21
2022-11-28T02:34:09.892Z,53.46
2022-11-28T02:35:22.844Z,51.88
2022-11-28T02:36:13.881Z,53.33
2022-11-28T02:36:57.953Z,53.31
2022-11-28T02:37:55.924Z,52.40
2022-11-28T02:38:53.818Z,52.36
2022-11-28T02:39:38.879Z,51.11
2022-11-28T02:40:51.807Z,51.59
2022-11-28T02:41:38.887Z,52.60
2022-11-28T02:42:24.847Z,54.95
2022-11-28T02:43:31.530Z,52.83
2022-11-28T02:44:30.798Z,53.16
2022-11-28T02:45:36.829Z,53.15
2022-11-28T02:46:40.812Z,52.74
2022-11-28T02:47:58.815Z,54.59
2022-11-28T02:49:17.782Z,57.04
2022-11-28T02:50:34.785Z,56.51
2022-11-28T02:51:53.821Z,54.22
2022-11-28T02:52:55.789Z,51.65
2022-11-28T02:53:37.836Z,51.65
2022-11-28T02:54:32.811Z,51.76
2022-11-28T02:55:27.792Z,53.09
2022-11-28T02:56:23.824Z,52.95
2022-11-28T02:57:17.820Z,51.14
2022-11-28T02:58:11.792Z,50.31
2022-11-28T02:58:58.803Z,48.95
2022-11-28T02:59:43.816Z,50.15
2022-11-28T03:00:41.853Z,50.67
2022-11-28T03:01:30.947Z,50.42
2022-11-28T03:02:49.781Z,49.10
2022-11-28T03:03:33.147Z,51.26
2022-11-28T03:04:31.791Z,51.65
2022-11-28T03:05:18.829Z,51.51
2022-11-28T03:06:18.773Z,52.77
2022-11-28T03:07:19.896Z,53.14
2022-11-28T03:08:42.760Z,51.91
2022-11-28T03:09:44.816Z,50.56
2022-11-28T03:11:01.801Z,50.95
2022-11-28T03:12:23.770Z,51.63
2022-11-28T03:14:04.755Z,52.36
2022-11-28T03:15:15.807Z,50.94
2022-11-28T03:16:26.909Z,48.42
2022-11-28T03:17:59.776Z,50.29
2022-11-28T03:19:28.773Z,52.83
2022-11-28T03:20:37.768Z,50.10
2022-11-28T03:21:39.772Z,50.05
2022-11-28T03:22:54.789Z,53.30
2022-11-28T03:23:59.801Z,50.67
2022-11-28T03:25:11.757Z,48.36
2022-11-28T03:26:06.765Z,49.44
2022-11-28T03:26:53.858Z,49.38
2022-11-28T03:27:53.732Z,49.05
2022-11-28T03:28:58.784Z,49.33
2022-11-28T03:30:06.754Z,46.81
2022-11-28T03:31:20.797Z,48.47
2022-11-28T03:32:21.739Z,48.04
2022-11-28T03:33:16.766Z,48.78
2022-11-28T03:34:12.730Z,48.63
2022-11-28T03:35:13.747Z,48.24
2022-11-28T03:36:16.750Z,48.33
2022-11-28T03:37:03.854Z,47.69
2022-11-28T03:37:55.791Z,47.26
2022-11-28T03:38:48.741Z,48.46
2022-11-28T03:39:31.759Z,48.59
2022-11-28T03:40:17.716Z,47.15
2022-11-28T03:41:01.761Z,47.59
2022-11-28T03:41:49.731Z,48.60
2022-11-28T03:42:34.758Z,49.66
2022-11-28T03:43:11.813Z,48.94
2022-11-28T03:44:01.785Z,48.25
2022-11-28T03:44:38.804Z,51.70
2022-11-28T03:45:30.724Z,50.71
2022-11-28T03:46:10.779Z,52.70
2022-11-28T03:46:58.788Z,56.47
2022-11-28T03:47:46.772Z,56.46
2022-11-28T03:48:45.796Z,55.96
2022-11-28T03:49:44.744Z,56.17
2022-11-28T03:50:55.754Z,56.16
2022-11-28T03:52:12.716Z,53.09
2022-11-28T03:53:19.717Z,52.60
2022-11-28T03:54:19.732Z,51.96
2022-11-28T03:55:36.759Z,49.78
2022-11-28T03:56:38.741Z,49.83
2022-11-28T03:58:13.754Z,48.17
2022-11-28T03:59:01.722Z,48.58
2022-11-28T03:59:51.775Z,47.70
2022-11-28T04:00:32.900Z,46.20
2022-11-28T04:01:57.816Z,46.00
2022-11-28T04:03:04.771Z,48.16
2022-11-28T04:04:12.764Z,49.03
2022-11-28T04:05:31.724Z,48.50
2022-11-28T04:07:01.762Z,47.09
2022-11-28T04:08:00.800Z,48.46
2022-11-28T04:09:02.720Z,48.22
2022-11-28T04:09:47.762Z,49.36
2022-11-28T04:10:44.792Z,48.84
2022-11-28T04:11:35.751Z,48.97
2022-11-28T04:12:34.764Z,50.08
2022-11-28T04:13:30.716Z,47.58
2022-11-28T04:14:33.778Z,48.26
2022-11-28T04:15:24.741Z,50.41
2022-11-28T04:16:25.791Z,46.99
2022-11-28T04:17:34.707Z,46.72
2022-11-28T04:18:49.852Z,46.29
2022-11-28T04:19:56.691Z,45.42
2022-11-28T04:20:52.727Z,47.54
2022-11-28T04:22:00.782Z,47.55
2022-11-28T04:23:04.689Z,47.53
2022-11-28T04:24:00.700Z,47.00
2022-11-28T04:25:00.688Z,48.59
2022-11-28T04:25:59.708Z,47.05
2022-11-28T04:27:09.673Z,46.35
2022-11-28T04:28:11.658Z,44.54
2022-11-28T04:29:06.691Z,45.15
2022-11-28T04:30:05.700Z,44.11
2022-11-28T04:31:02.716Z,42.84
2022-11-28T04:31:58.766Z,44.15
2022-11-28T04:33:01.694Z,46.64
2022-11-28T04:33:58.687Z,43.44
2022-11-28T04:34:56.703Z,43.72
2022-11-28T04:35:59.720Z,46.30
2022-11-28T04:36:44.694Z,47.91
2022-11-28T04:37:26.732Z,45.26
2022-11-28T04:38:08.678Z,44.40
2022-11-28T04:38:56.229Z,45.56
2022-11-28T04:39:39.643Z,44.86
2022-11-28T04:40:19.728Z,43.24
2022-11-28T04:41:08.685Z,44.83
2022-11-28T04:42:09.786Z,43.71
2022-11-28T04:43:11.691Z,42.80
2022-11-28T04:44:16.681Z,42.58
2022-11-28T04:45:16.672Z,43.26
2022-11-28T04:46:38.670Z,43.66
2022-11-28T04:47:25.726Z,42.34
2022-11-28T04:47:59.742Z,44.72
2022-11-28T04:48:46.650Z,46.22
2022-11-28T04:49:20.687Z,47.40
2022-11-28T04:50:07.661Z,45.97
2022-11-28T04:50:59.727Z,47.49
2022-11-28T04:52:18.640Z,45.33
2022-11-28T04:53:09.668Z,44.91
2022-11-28T04:54:23.662Z,45.24
2022-11-28T04:55:40.679Z,43.35
2022-11-28T04:56:47.679Z,43.08
2022-11-28T04:57:52.860Z,42.65
2022-11-28T04:58:47.685Z,42.03
2022-11-28T04:59:29.774Z,42.51
2022-11-28T05:00:18.693Z,41.31
2022-11-28T05:01:00.779Z,41.06
2022-11-28T05:01:41.722Z,40.95
2022-11-28T05:02:22.766Z,41.41
2022-11-28T05:03:03.640Z,42.05
2022-11-28T05:03:45.695Z,41.91
2022-11-28T05:04:26.678Z,41.40
2022-11-28T05:05:06.706Z,40.28
2022-11-28T05:05:53.633Z,39.94
2022-11-28T05:06:40.759Z,41.89
2022-11-28T05:07:20.662Z,42.31
2022-11-28T05:08:00.749Z,42.59
2022-11-28T05:08:40.617Z,42.91
2022-11-28T05:09:21.715Z,41.19
2022-11-28T05:10:04.682Z,42.13
2022-11-28T05:10:46.646Z,42.21
2022-11-28T05:11:27.622Z,41.79
2022-11-28T05:12:07.698Z,42.76
2022-11-28T05:12:47.647Z,42.01
2022-11-28T05:13:27.731Z,38.90
2022-11-28T05:14:07.639Z,40.09
2022-11-28T05:14:47.675Z,42.64
2022-11-28T05:15:28.667Z,44.22
2022-11-28T05:16:08.687Z,41.17
2022-11-28T05:16:48.699Z,38.97
2022-11-28T05:17:28.672Z,40.38
2022-11-28T05:18:08.628Z,41.47
2022-11-28T05:18:48.665Z,43.19
2022-11-28T05:19:28.644Z,43.28
2022-11-28T05:20:11.693Z,41.59
2022-11-28T05:20:51.702Z,42.25
2022-11-28T05:21:31.722Z,41.70
2022-11-28T05:22:11.619Z,42.44
2022-11-28T05:22:51.748Z,41.60
2022-11-28T05:23:31.606Z,41.26
2022-11-28T05:24:11.674Z,44.01
2022-11-28T05:24:52.604Z,45.01
2022-11-28T05:25:32.681Z,42.89
2022-11-28T05:26:25.692Z,43.65
2022-11-28T05:27:05.705Z,43.89
2022-11-28T05:27:45.626Z,48.31
2022-11-28T05:28:25.667Z,51.28
2022-11-28T05:29:05.611Z,53.24
2022-11-28T05:29:51.905Z,61.60
2022-11-28T05:30:32.650Z,75.03
2022-11-28T05:31:12.667Z,80.25
2022-11-28T05:31:52.670Z,80.66
2022-11-28T05:32:36.503Z,71.34
2022-11-28T05:33:16.646Z,65.94
2022-11-28T05:33:56.722Z,60.84
2022-11-28T05:34:37.611Z,57.04
2022-11-28T05:35:17.680Z,57.35
2022-11-28T05:35:57.608Z,55.06
2022-11-28T05:36:37.677Z,48.21
2022-11-28T05:37:17.640Z,48.28
2022-11-28T05:37:57.655Z,46.20
2022-11-28T05:38:39.607Z,45.91
2022-11-28T05:39:20.681Z,45.13
2022-11-28T05:40:00.624Z,45.19
2022-11-28T05:40:44.310Z,43.75
2022-11-28T05:41:30.619Z,43.28
2022-11-28T05:42:10.685Z,41.09
2022-11-28T05:42:50.691Z,41.00
2022-11-28T05:43:30.673Z,42.53
2022-11-28T05:44:12.595Z,45.47
2022-11-28T05:44:52.793Z,45.65
2022-11-28T05:45:32.695Z,45.96
2022-11-28T05:46:12.683Z,46.04
2022-11-28T05:46:52.599Z,47.33
2022-11-28T05:47:32.762Z,46.39
2022-11-28T05:48:13.636Z,48.54
2022-11-28T05:48:54.676Z,50.09
2022-11-28T05:49:35.612Z,50.67
2022-11-28T05:50:16.675Z,52.09
2022-11-28T05:50:57.611Z,52.79
2022-11-28T05:51:37.591Z,54.09
2022-11-28T05:52:17.632Z,51.94
2022-11-28T05:52:57.641Z,51.26
2022-11-28T05:53:38.640Z,50.40
2022-11-28T05:54:18.637Z,48.70
2022-11-28T05:54:58.612Z,49.84
2022-11-28T05:55:38.604Z,49.39
2022-11-28T05:56:24.584Z,47.78
2022-11-28T05:57:06.457Z,45.75
2022-11-28T05:57:47.608Z,47.64
2022-11-28T05:58:27.639Z,47.24
2022-11-28T05:59:07.621Z,44.28
2022-11-28T05:59:47.754Z,44.22
2022-11-28T06:00:28.575Z,43.54
2022-11-28T06:01:23.636Z,40.13
2022-11-28T06:02:04.608Z,42.01
2022-11-28T06:02:44.680Z,40.26
2022-11-28T06:03:25.600Z,39.92
2022-11-28T06:04:06.681Z,39.47
2022-11-28T06:04:48.610Z,41.80
2022-11-28T06:05:42.189Z,41.79
2022-11-28T06:06:28.620Z,42.51
2022-11-28T06:07:09.655Z,41.46
2022-11-28T06:07:49.658Z,39.46
2022-11-28T06:08:29.696Z,38.72
2022-11-28T06:09:11.577Z,38.66
2022-11-28T06:09:58.591Z,38.49
2022-11-28T06:10:53.567Z,37.28
2022-11-28T06:11:48.630Z,39.89
2022-11-28T06:12:42.632Z,39.34
2022-11-28T06:13:36.607Z,39.42
2022-11-28T06:14:30.590Z,36.49
2022-11-28T06:15:17.623Z,37.95
2022-11-28T06:15:51.588Z,39.00
2022-11-28T06:16:38.666Z,36.69
2022-11-28T06:17:12.595Z,36.70
2022-11-28T06:18:00.622Z,36.86
2022-11-28T06:18:34.628Z,35.53
2022-11-28T06:19:21.600Z,34.61
2022-11-28T06:19:55.663Z,37.34
2022-11-28T06:20:42.601Z,38.86
2022-11-28T06:21:18.712Z,37.34
2022-11-28T06:22:05.576Z,36.94
2022-11-28T06:22:39.749Z,36.05
2022-11-28T06:23:26.584Z,37.94
2022-11-28T06:24:00.644Z,39.45
2022-11-28T06:24:47.592Z,39.51
2022-11-28T06:25:21.599Z,39.56
2022-11-28T06:26:02.601Z,39.11
2022-11-28T06:26:42.635Z,38.33
2022-11-28T06:27:22.566Z,37.76
2022-11-28T06:28:02.638Z,37.29
2022-11-28T06:28:43.584Z,38.26
2022-11-28T06:29:24.570Z,36.49
2022-11-28T06:30:04.539Z,34.79
2022-11-28T06:30:44.652Z,36.17
2022-11-28T06:31:28.749Z,35.89
2022-11-28T06:32:08.627Z,36.54
2022-11-28T06:32:48.563Z,36.95
2022-11-28T06:33:29.784Z,38.30
2022-11-28T06:34:10.571Z,36.17
2022-11-28T06:34:50.674Z,34.63
2022-11-28T06:35:30.548Z,35.21
2022-11-28T06:36:12.587Z,35.22
2022-11-28T06:36:52.587Z,36.20
2022-11-28T06:37:32.623Z,35.97
2022-11-28T06:38:14.382Z,35.30
2022-11-28T06:38:55.903Z,36.20
2022-11-28T06:39:36.594Z,34.28
2022-11-28T06:40:17.573Z,36.16
2022-11-28T06:40:57.594Z,35.51
2022-11-28T06:41:37.652Z,35.14
2022-11-28T06:42:17.580Z,36.53
2022-11-28T06:42:57.671Z,37.15
2022-11-28T06:43:38.568Z,34.59
2022-11-28T06:44:22.660Z,33.94
2022-11-28T06:45:02.551Z,33.08
2022-11-28T06:45:42.660Z,35.51
2022-11-28T06:46:26.586Z,34.92
2022-11-28T06:47:06.820Z,34.91
2022-11-28T06:47:47.773Z,35.36
2022-11-28T06:48:30.613Z,37.61
2022-11-28T06:49:10.537Z,66.16
2022-11-28T06:49:50.600Z,94.84
2022-11-28T06:50:30.548Z,263.10
2022-11-28T06:51:13.215Z,461.66
2022-11-28T06:51:53.630Z,172.32
2022-11-28T06:52:35.668Z,59.76
2022-11-28T06:53:15.627Z,44.28
2022-11-28T06:53:56.600Z,38.54
2022-11-28T06:54:37.556Z,38.06
2022-11-28T06:55:17.919Z,38.33
2022-11-28T06:55:57.512Z,37.22
2022-11-28T06:56:38.588Z,38.13
2022-11-28T06:57:19.863Z,37.01
2022-11-28T06:58:00.601Z,33.94
2022-11-28T06:58:41.698Z,35.96
2022-11-28T06:59:21.567Z,37.11
2022-11-28T07:00:02.633Z,36.25
2022-11-28T07:00:43.657Z,36.50
2022-11-28T07:01:27.627Z,37.85
2022-11-28T07:02:08.644Z,38.17
2022-11-28T07:02:48.616Z,38.33
2022-11-28T07:03:28.656Z,41.67
2022-11-28T07:04:08.565Z,40.55
2022-11-28T07:04:48.585Z,39.29
2022-11-28T07:05:29.515Z,41.90
2022-11-28T07:06:11.632Z,41.69
2022-11-28T07:06:52.538Z,42.26
2022-11-28T07:07:32.571Z,42.46
2022-11-28T07:08:13.578Z,41.66
2022-11-28T07:08:54.628Z,43.00
2022-11-28T07:09:35.513Z,41.15
2022-11-28T07:10:16.625Z,39.96
2022-11-28T07:10:56.553Z,39.22
2022-11-28T07:11:38.647Z,39.56
2022-11-28T07:12:18.513Z,37.66
2022-11-28T07:13:05.630Z,38.58
2022-11-28T07:13:47.496Z,40.24
2022-11-28T07:14:27.667Z,39.16
2022-11-28T07:15:07.578Z,38.28
2022-11-28T07:15:58.511Z,36.11
2022-11-28T07:16:39.600Z,36.58
2022-11-28T07:17:19.611Z,36.01
2022-11-28T07:18:00.533Z,35.33
2022-11-28T07:18:41.607Z,36.41
2022-11-28T07:19:21.522Z,36.58
2022-11-28T07:20:02.610Z,36.22
2022-11-28T07:20:43.545Z,34.40
2022-11-28T07:21:25.586Z,35.64
2022-11-28T07:22:05.519Z,37.05
2022-11-28T07:22:47.011Z,35.67
2022-11-28T07:23:27.528Z,34.20
2022-11-28T07:24:07.600Z,35.28
2022-11-28T07:24:48.523Z,36.30
2022-11-28T07:25:28.560Z,36.13
2022-11-28T07:26:11.609Z,38.29
2022-11-28T07:26:52.602Z,37.11
2022-11-28T07:27:32.498Z,36.40
2022-11-28T07:28:12.639Z,36.99
2022-11-28T07:28:53.547Z,36.03
2022-11-28T07:29:37.208Z,35.70
2022-11-28T07:30:18.509Z,35.76
2022-11-28T07:31:20.532Z,37.20
2022-11-28T07:32:14.581Z,37.17
2022-11-28T07:33:08.504Z,37.30
2022-11-28T07:34:04.617Z,36.33
2022-11-28T07:34:58.502Z,36.29
2022-11-28T07:35:52.491Z,35.97
2022-11-28T07:36:40.550Z,36.63
2022-11-28T07:37:16.115Z,37.28
2022-11-28T07:38:03.563Z,37.81
2022-11-28T07:38:37.583Z,39.45
2022-11-28T07:39:24.471Z,39.54
2022-11-28T07:39:58.523Z,42.31
2022-11-28T07:40:45.470Z,43.01
2022-11-28T07:41:24.951Z,43.92
2022-11-28T07:42:06.504Z,44.13
2022-11-28T07:42:48.794Z,37.65
2022-11-28T07:43:28.472Z,39.69
2022-11-28T07:44:11.795Z,42.63
2022-11-28T07:44:52.606Z,43.47
2022-11-28T07:45:59.917Z,45.61
2022-11-28T07:46:54.609Z,164.56
2022-11-28T07:47:34.533Z,248.51
2022-11-28T07:48:15.471Z,321.02
2022-11-28T07:48:56.482Z,182.00
2022-11-28T07:49:36.584Z,115.46
2022-11-28T07:50:17.481Z,74.71
2022-11-28T07:50:57.582Z,56.54
2022-11-28T07:51:39.467Z,42.85
2022-11-28T07:52:19.511Z,41.30
2022-11-28T07:53:05.633Z,38.76
2022-11-28T07:53:48.609Z,38.58
2022-11-28T07:54:28.452Z,37.49
2022-11-28T07:55:08.546Z,36.16
2022-11-28T07:55:48.465Z,35.88
2022-11-28T07:56:57.325Z,36.24
2022-11-28T07:57:33.452Z,40.05
2022-11-28T07:58:20.459Z,42.46
2022-11-28T07:59:14.431Z,54.11
2022-11-28T08:00:08.443Z,65.50
2022-11-28T08:01:02.442Z,66.51
2022-11-28T08:01:56.576Z,61.63
2022-11-28T08:02:52.460Z,54.75
2022-11-28T08:03:39.485Z,56.47
2022-11-28T08:04:15.686Z,53.60
2022-11-28T08:05:02.528Z,48.69
2022-11-28T08:05:36.548Z,47.50
2022-11-28T08:06:26.678Z,42.90
2022-11-28T08:07:00.526Z,43.49
2022-11-28T08:07:47.555Z,43.97
2022-11-28T08:08:25.561Z,44.38
2022-11-28T08:09:07.475Z,43.67
2022-11-28T08:09:47.690Z,42.05
2022-11-28T08:10:28.457Z,41.60
2022-11-28T08:11:11.604Z,39.78
2022-11-28T08:11:52.456Z,38.81
2022-11-28T08:12:32.485Z,38.15
2022-11-28T08:13:12.435Z,37.06
2022-11-28T08:13:56.388Z,38.46
2022-11-28T08:14:39.520Z,38.49
2022-11-28T08:15:19.586Z,36.58
2022-11-28T08:16:00.424Z,37.78
2022-11-28T08:16:45.050Z,37.80
2022-11-28T08:17:26.446Z,37.71
2022-11-28T08:18:06.514Z,37.63
2022-11-28T08:18:47.433Z,37.97
2022-11-28T08:19:31.936Z,37.96
2022-11-28T08:20:14.519Z,34.95
2022-11-28T08:20:55.482Z,35.81
2022-11-28T08:21:38.641Z,39.09
2022-11-28T08:22:18.495Z,40.47
2022-11-28T08:22:58.463Z,37.88
2022-11-28T08:23:41.599Z,37.60
2022-11-28T08:24:21.445Z,40.39
2022-11-28T08:25:01.483Z,39.25
2022-11-28T08:25:41.467Z,38.14
2022-11-28T08:26:27.504Z,37.75
2022-11-28T08:27:10.414Z,37.83
2022-11-28T08:27:50.474Z,38.17
2022-11-28T08:28:31.489Z,39.61
2022-11-28T08:29:11.482Z,38.14
2022-11-28T08:29:54.017Z,36.79
2022-11-28T08:30:34.523Z,35.24
2022-11-28T08:31:38.443Z,34.65
2022-11-28T08:32:18.520Z,35.94
2022-11-28T08:32:58.435Z,36.29
2022-11-28T08:33:38.752Z,36.69
2022-11-28T08:34:19.445Z,37.15
2022-11-28T08:35:00.516Z,36.17
2022-11-28T08:35:40.419Z,36.58
2022-11-28T08:36:23.510Z,35.84
2022-11-28T08:37:03.453Z,36.70
2022-11-28T08:37:43.512Z,35.54
2022-11-28T08:38:24.408Z,35.75
2022-11-28T08:39:24.532Z,36.15
2022-11-28T08:40:06.393Z,35.85
2022-11-28T08:40:46.432Z,35.15
2022-11-28T08:41:29.418Z,35.09
2022-11-28T08:42:16.503Z,33.96
2022-11-28T08:43:14.420Z,35.14
2022-11-28T08:44:08.402Z,35.70
2022-11-28T08:45:02.418Z,33.85
2022-11-28T08:45:43.108Z,66.24
2022-11-28T08:46:33.428Z,129.07
2022-11-28T08:47:07.036Z,183.84
2022-11-28T08:47:48.432Z,257.41
2022-11-28T08:48:22.733Z,219.84
2022-11-28T08:48:57.199Z,110.25
2022-11-28T08:49:38.399Z,66.75
2022-11-28T08:50:15.484Z,54.39
2022-11-28T08:50:50.092Z,46.76
2022-11-28T08:51:30.425Z,34.29
2022-11-28T08:52:04.544Z,31.96
2022-11-28T08:52:38.052Z,33.45
2022-11-28T08:53:18.812Z,34.22
2022-11-28T08:53:57.830Z,34.00
2022-11-28T08:54:34.135Z,32.91
2022-11-28T08:55:15.407Z,33.36
2022-11-28T08:55:50.621Z,32.76
2022-11-28T08:56:24.145Z,33.41
2022-11-28T08:57:05.421Z,32.71
2022-11-28T08:57:39.412Z,32.65
2022-11-28T08:58:13.692Z,33.72
2022-11-28T08:58:54.543Z,35.49
2022-11-28T08:59:28.567Z,37.64
2022-11-28T09:00:02.191Z,37.60
2022-11-28T09:00:43.499Z,35.25
2022-11-28T09:01:30.970Z,37.46
2022-11-28T09:02:05.496Z,38.63
2022-11-28T09:02:45.440Z,37.11
2022-11-28T09:03:25.523Z,39.20
2022-11-28T09:04:05.486Z,39.05
2022-11-28T09:04:45.579Z,38.47
2022-11-28T09:05:25.408Z,39.15
2022-11-28T09:06:09.325Z,39.64
2022-11-28T09:06:49.469Z,39.39
2022-11-28T09:07:30.536Z,37.45
2022-11-28T09:08:11.940Z,36.19
2022-11-28T09:08:54.087Z,36.47
2022-11-28T09:09:35.455Z,37.44
2022-11-28T09:10:16.741Z,37.56
2022-11-28T09:10:57.368Z,36.14
2022-11-28T09:11:37.461Z,35.06
2022-11-28T09:12:18.420Z,36.79
2022-11-28T09:12:59.471Z,35.76
2022-11-28T09:13:39.478Z,34.42
2022-11-28T09:14:20.461Z,35.53
2022-11-28T09:15:00.460Z,35.78
2022-11-28T09:15:41.474Z,36.10
2022-11-28T09:16:22.534Z,34.26
2022-11-28T09:17:03.555Z,36.10
2022-11-28T09:17:43.486Z,35.21
2022-11-28T09:18:23.598Z,35.21
2022-11-28T09:19:06.477Z,37.29
2022-11-28T09:19:46.497Z,38.66
2022-11-28T09:20:28.530Z,39.99
2022-11-28T09:21:15.744Z,38.92
2022-11-28T09:21:57.985Z,40.66
2022-11-28T09:22:40.819Z,38.76
2022-11-28T09:23:21.376Z,40.42
2022-11-28T09:24:02.553Z,39.88
2022-11-28T09:24:43.442Z,35.66
2022-11-28T09:25:24.480Z,37.01
2022-11-28T09:26:05.197Z,39.64
2022-11-28T09:26:49.592Z,39.75
2022-11-28T09:27:29.460Z,38.06
2022-11-28T09:28:10.565Z,39.86
2022-11-28T09:28:51.446Z,38.90
2022-11-28T09:29:32.638Z,39.78
2022-11-28T09:30:15.445Z,42.97
2022-11-28T09:30:56.534Z,42.58
2022-11-28T09:31:37.452Z,44.14
2022-11-28T09:32:17.497Z,45.64
2022-11-28T09:32:57.415Z,43.50
2022-11-28T09:33:39.444Z,45.60
2022-11-28T09:34:25.396Z,47.21
2022-11-28T09:35:05.439Z,46.46
2022-11-28T09:35:48.371Z,46.01
2022-11-28T09:36:31.452Z,45.47
2022-11-28T09:37:12.421Z,45.41
2022-11-28T09:37:53.480Z,46.79
2022-11-28T09:38:34.330Z,45.03
2022-11-28T09:39:14.434Z,45.56
2022-11-28T09:40:11.965Z,44.10
2022-11-28T09:40:56.574Z,43.80
2022-11-28T09:41:51.372Z,41.99
2022-11-28T09:42:51.386Z,39.11
2022-11-28T09:43:43.445Z,39.63
2022-11-28T09:44:45.783Z,43.19
2022-11-28T09:45:29.311Z,45.58
2022-11-28T09:46:17.653Z,43.99
2022-11-28T09:47:02.383Z,43.99
2022-11-28T09:47:43.486Z,42.81
2022-11-28T09:48:45.419Z,42.25
2022-11-28T09:49:43.655Z,43.38
2022-11-28T09:50:40.348Z,46.53
2022-11-28T09:51:42.404Z,46.44
2022-11-28T09:52:51.418Z,47.49
2022-11-28T09:53:53.511Z,50.50
2022-11-28T09:54:36.733Z,52.54
2022-11-28T09:55:51.356Z,52.65
2022-11-28T09:56:25.231Z,53.60
2022-11-28T09:57:13.528Z,55.21
2022-11-28T09:57:52.571Z,58.78
2022-11-28T09:59:05.380Z,62.42
2022-11-28T09:59:41.122Z,60.42
2022-11-28T10:00:36.354Z,57.84